Time;durP1;ratioP1;P1;durP2;ratioP2;P2;SDS_P1;SDS_P2;PMS_P1;PMS_P2;Temp;Humidity;BMP_temperature;BMP_pressure;BME280_temperature;BME280_humidity;BME280_pressure;Samples;Min_cycle;Max_cycle;Signal;HPM_P1;HPM_P2
2021/01/29 00:00:17;;;;;;;1.45;0.52;;;14.00;74.90;;;;;;2350515;54;20917;-73
2021/01/29 00:02:43;;;;;;;1.25;0.55;;;14.00;74.90;;;;;;2345120;54;20950;-74
2021/01/29 00:05:10;;;;;;;1.05;0.40;;;14.00;74.90;;;;;;2583503;52;20904;-73
2021/01/29 00:07:36;;;;;;;0.73;0.40;;;13.90;74.70;;;;;;2587055;52;21046;-73
2021/01/29 00:10:04;;;;;;;1.23;0.50;;;13.90;74.70;;;;;;2587311;52;21034;-73
2021/01/29 00:12:32;;;;;;;1.58;0.57;;;13.90;74.70;;;;;;2586310;52;21563;-73
2021/01/29 00:14:58;;;;;;;1.15;0.50;;;13.90;74.80;;;;;;2580773;52;20991;-73
2021/01/29 00:17:25;;;;;;;1.40;0.50;;;13.90;74.80;;;;;;2581546;52;20952;-73
2021/01/29 00:19:51;;;;;;;1.30;0.40;;;13.80;74.80;;;;;;2585295;52;21051;-74
2021/01/29 00:22:18;;;;;;;1.48;0.52;;;13.80;74.90;;;;;;2341174;53;20973;-73
2021/01/29 00:24:44;;;;;;;1.67;0.60;;;13.80;75.00;;;;;;2588662;52;21069;-73
2021/01/29 00:27:11;;;;;;;1.12;0.50;;;13.80;75.20;;;;;;2353224;53;21026;-73
2021/01/29 00:29:37;;;;;;;1.65;0.60;;;13.80;75.20;;;;;;2343221;53;21027;-73
2021/01/29 00:32:04;;;;;;;1.37;0.52;;;13.80;75.10;;;;;;2585667;52;21041;-73
2021/01/29 00:34:30;;;;;;;1.75;0.50;;;13.80;75.20;;;;;;2340041;53;20962;-74
2021/01/29 00:36:57;;;;;;;1.37;0.60;;;13.70;75.00;;;;;;2583918;52;21778;-74
2021/01/29 00:39:26;;;;;;;2.33;0.98;;;13.70;75.00;;;;;;2575942;52;21581;-74
2021/01/29 00:41:53;;;;;;;1.87;0.60;;;13.70;75.00;;;;;;2601454;52;21543;-74
2021/01/29 00:44:19;;;;;;;1.23;0.50;;;13.70;75.10;;;;;;2578881;52;20947;-74
2021/01/29 00:46:45;;;;;;;1.60;0.60;;;13.70;75.00;;;;;;2571339;52;21164;-73
2021/01/29 00:49:13;;;;;;;1.10;0.50;;;13.70;75.00;;;;;;2596984;52;20995;-75
2021/01/29 00:51:39;;;;;;;1.60;0.60;;;13.70;75.00;;;;;;2579439;52;20903;-74
2021/01/29 00:54:08;;;;;;;0.80;0.50;;;13.60;75.10;;;;;;2572644;52;21784;-75
2021/01/29 00:56:35;;;;;;;1.42;0.60;;;13.60;75.30;;;;;;2348676;53;21010;-74
2021/01/29 00:59:01;;;;;;;2.72;0.70;;;13.70;75.50;;;;;;2582983;52;21026;-74
2021/01/29 01:01:27;;;;;;;1.92;0.70;;;13.60;75.60;;;;;;2583633;52;20999;-74
2021/01/29 01:03:55;;;;;;;2.12;0.80;;;13.60;75.80;;;;;;2584926;52;20991;-74
2021/01/29 01:06:22;;;;;;;1.90;0.80;;;13.60;76.00;;;;;;2580704;52;21555;-74
2021/01/29 01:08:55;;;;;;;2.25;0.57;;;13.60;76.00;;;;;;2352304;53;21030;-74
2021/01/29 01:11:22;;;;;;;2.08;1.00;;;13.60;76.10;;;;;;2347883;53;21545;-74
2021/01/29 01:13:53;;;;;;;1.80;0.82;;;13.60;76.20;;;;;;2598448;52;20948;-73
2021/01/29 01:16:20;;;;;;;1.93;0.80;;;13.60;76.30;;;;;;2569049;52;20960;-74
2021/01/29 01:18:46;;;;;;;2.67;0.95;;;13.60;76.20;;;;;;2327181;53;20980;-74
2021/01/29 01:21:13;;;;;;;1.90;0.70;;;13.60;76.40;;;;;;2548827;53;20959;-74
2021/01/29 01:23:39;;;;;;;1.35;0.55;;;13.60;76.40;;;;;;2580725;53;20947;-74
2021/01/29 01:26:06;;;;;;;1.77;0.77;;;13.60;76.40;;;;;;2581764;53;21054;-74
2021/01/29 01:28:32;;;;;;;2.37;0.80;;;13.60;76.40;;;;;;2579675;53;20925;-75
2021/01/29 01:30:59;;;;;;;2.42;0.70;;;13.60;76.30;;;;;;2584367;52;21450;-74
2021/01/29 01:33:25;;;;;;;1.75;0.73;;;13.60;76.40;;;;;;2565249;52;21025;-74
2021/01/29 01:35:51;;;;;;;2.35;0.77;;;13.60;76.20;;;;;;2329530;53;20966;-74
2021/01/29 01:38:18;;;;;;;2.20;0.77;;;13.60;76.20;;;;;;2572502;52;20962;-74
2021/01/29 01:40:46;;;;;;;2.40;0.90;;;13.60;76.20;;;;;;2344184;54;20991;-74
2021/01/29 01:43:12;;;;;;;3.58;0.90;;;13.60;76.30;;;;;;2558546;52;20963;-74
2021/01/29 01:45:57;;;;;;;2.92;0.50;;;13.70;76.30;;;;;;2536629;53;20984;-74
2021/01/29 01:49:09;;;;;;;1.02;0.43;;;13.70;76.20;;;;;;2569362;52;20958;-74
2021/01/29 01:51:41;;;;;;;1.40;0.50;;;13.70;75.80;;;;;;2325858;53;21336;-74
2021/01/29 01:54:47;;;;;;;1.33;0.60;;;13.70;76.10;;;;;;2343732;53;20960;-74
2021/01/29 01:57:14;;;;;;;1.90;0.77;;;13.70;75.80;;;;;;2579011;52;20984;-74
2021/01/29 01:59:43;;;;;;;0.95;0.40;;;13.70;76.10;;;;;;2569505;53;20976;-74
2021/01/29 02:02:09;;;;;;;1.90;1.00;;;13.70;75.90;;;;;;2556364;53;21046;-74
2021/01/29 02:04:39;;;;;;;2.12;0.68;;;13.70;75.90;;;;;;2347915;54;21007;-74
2021/01/29 02:07:45;;;;;;;1.75;0.68;;;13.70;75.90;;;;;;2573206;52;20979;-74
2021/01/29 02:10:11;;;;;;;1.25;0.60;;;13.80;75.60;;;;;;2557946;52;20995;-74
2021/01/29 02:12:39;;;;;;;1.83;0.70;;;13.70;75.80;;;;;;2582616;52;21046;-73
2021/01/29 02:15:13;;;;;;;2.00;0.65;;;13.70;75.80;;;;;;2339503;54;20947;-74
2021/01/29 02:18:04;;;;;;;3.87;0.57;;;13.80;75.80;;;;;;2578263;52;20994;-74
2021/01/29 02:22:31;;;;;;;2.10;0.62;;;13.70;75.60;;;;;;2577646;52;20959;-73
2021/01/29 02:25:15;;;;;;;1.17;0.50;;;13.80;75.70;;;;;;2566761;53;21115;-74
2021/01/29 02:27:53;;;;;;;0.90;0.47;;;13.90;75.50;;;;;;2352574;54;20939;-74
2021/01/29 02:30:50;;;;;;;1.77;0.60;;;13.80;75.40;;;;;;2360099;53;21947;-74
2021/01/29 02:37:26;;;;;;;2.78;0.60;;;13.70;75.10;;;;;;2581435;52;20961;-72
2021/01/29 02:40:15;;;;;;;1.75;0.50;;;13.70;75.00;;;;;;2591514;52;20954;-73
2021/01/29 02:43:15;;;;;;;2.17;0.70;;;13.70;75.00;;;;;;2341061;53;20907;-74
2021/01/29 02:45:49;;;;;;;1.75;0.60;;;13.60;75.00;;;;;;2581192;52;20948;-73
2021/01/29 02:48:24;;;;;;;1.62;0.80;;;13.60;75.40;;;;;;2359558;54;21053;-74
2021/01/29 02:51:03;;;;;;;2.78;0.85;;;13.60;75.40;;;;;;2345619;54;20931;-74
2021/01/29 02:54:35;;;;;;;1.73;0.70;;;13.60;75.40;;;;;;2587035;52;21018;-73
2021/01/29 02:59:43;;;;;;;1.50;0.60;;;13.50;75.40;;;;;;2580924;52;20917;-74
2021/01/29 03:02:18;;;;;;;2.12;0.52;;;13.50;75.50;;;;;;2346295;53;20999;-74
2021/01/29 03:05:07;;;;;;;1.50;0.43;;;13.50;75.40;;;;;;2576523;52;20982;-74
2021/01/29 03:09:14;;;;;;;2.12;0.60;;;13.50;75.50;;;;;;2347545;53;20955;-75
2021/01/29 03:12:33;;;;;;;1.48;0.60;;;13.50;75.60;;;;;;2582020;52;21055;-75
2021/01/29 03:18:36;;;;;;;1.67;0.50;;;13.50;75.60;;;;;;2590080;52;21011;-74
2021/01/29 03:21:17;;;;;;;2.67;0.70;;;13.40;75.40;;;;;;2357590;54;21030;-74
2021/01/29 03:23:49;;;;;;;2.10;0.52;;;13.40;75.80;;;;;;2352707;54;20934;-74
2021/01/29 03:26:21;;;;;;;1.10;0.40;;;13.40;76.00;;;;;;2576850;52;21063;-74
2021/01/29 03:28:59;;;;;;;1.90;0.70;;;13.40;76.10;;;;;;2355213;53;20956;-74
2021/01/29 03:31:25;;;;;;;1.60;0.70;;;13.40;76.10;;;;;;2344629;54;21700;-74
2021/01/29 03:34:04;;;;;;;2.80;0.77;;;13.40;76.30;;;;;;2343025;54;20946;-73
2021/01/29 03:36:34;;;;;;;1.50;0.50;;;13.40;76.30;;;;;;2574126;53;21464;-73
2021/01/29 03:39:07;;;;;;;2.33;0.70;;;13.30;76.20;;;;;;2593242;52;21026;-73
2021/01/29 03:41:37;;;;;;;2.10;0.57;;;13.40;76.20;;;;;;2577703;52;20935;-74
2021/01/29 03:45:10;;;;;;;1.83;0.40;;;13.30;76.00;;;;;;2575871;52;21803;-74
2021/01/29 03:49:33;;;;;;;0.80;0.30;;;13.30;76.10;;;;;;2348935;53;20956;-74
2021/01/29 03:52:23;;;;;;;0.70;0.30;;;13.30;76.00;;;;;;2558049;52;20938;-75
2021/01/29 04:00:06;;;;;;;1.15;0.30;;;13.30;76.50;;;;;;2559055;52;21005;-75
2021/01/29 04:05:48;;;;;;;2.28;0.50;;;13.30;75.30;;;;;;2544750;53;21060;-73
2021/01/29 04:08:18;;;;;;;1.70;0.40;;;13.30;75.70;;;;;;2547253;52;20948;-74
2021/01/29 04:10:46;;;;;;;0.37;0.30;;;13.30;75.60;;;;;;2562709;52;20971;-73
2021/01/29 04:13:22;;;;;;;0.40;0.10;;;13.30;75.70;;;;;;2584049;52;22030;-74
2021/01/29 04:15:52;;;;;;;0.20;0.20;;;13.30;75.50;;;;;;2341677;54;21023;-74
2021/01/29 04:19:06;;;;;;;0.40;0.20;;;13.30;75.60;;;;;;2566994;52;20953;-74
2021/01/29 04:21:39;;;;;;;1.48;0.30;;;13.30;75.40;;;;;;2573396;52;21855;-74
2021/01/29 04:24:15;;;;;;;0.55;0.30;;;13.30;75.90;;;;;;2533478;53;21030;-74
2021/01/29 04:27:19;;;;;;;1.00;0.30;;;13.30;76.10;;;;;;2552298;53;21379;-74
2021/01/29 04:30:12;;;;;;;1.00;0.30;;;13.30;75.90;;;;;;2576360;53;20984;-74
2021/01/29 04:32:40;;;;;;;;;;;13.30;76.10;;;;;;2579608;53;21030;-74
2021/01/29 04:35:07;;;;;;;0.95;0.30;;;13.40;75.70;;;;;;2579533;53;20114;-74
2021/01/29 04:37:36;;;;;;;0.28;0.20;;;13.40;75.90;;;;;;2576760;52;22385;-74
2021/01/29 04:40:28;;;;;;;0.50;0.30;;;13.40;75.90;;;;;;2576183;53;21006;-74
2021/01/29 04:43:12;;;;;;;1.12;0.20;;;13.40;75.70;;;;;;2554372;52;20999;-74
2021/01/29 04:47:03;;;;;;;0.43;0.10;;;13.30;75.70;;;;;;2580735;52;20941;-74
2021/01/29 04:50:04;;;;;;;0.20;0.15;;;13.30;75.20;;;;;;2587300;52;21024;-74
2021/01/29 04:55:26;;;;;;;0.35;0.22;;;13.30;75.50;;;;;;2589911;52;21027;-74
2021/01/29 05:01:47;;;;;;;0.20;0.13;;;13.30;75.40;;;;;;2356166;54;20988;-74
2021/01/29 05:06:03;;;;;;;0.62;0.22;;;13.30;75.40;;;;;;2347806;54;21018;-74
2021/01/29 05:09:03;;;;;;;0.52;0.20;;;13.30;75.80;;;;;;2600935;52;20971;-74
2021/01/29 05:17:16;;;;;;;0.60;0.13;;;13.30;75.90;;;;;;2355172;54;21819;-74
2021/01/29 05:21:23;;;;;;;0.20;0.13;;;13.30;75.80;;;;;;2591798;52;21469;-74
2021/01/29 05:25:41;;;;;;;0.30;0.10;;;13.40;76.30;;;;;;2565696;52;21876;-74
2021/01/29 05:29:20;;;;;;;0.10;0.10;;;13.40;75.90;;;;;;2559890;52;21125;-74
2021/01/29 05:32:01;;;;;;;0.35;0.15;;;13.40;76.20;;;;;;2589402;52;21035;-74
2021/01/29 05:37:10;;;;;;;1.90;0.20;;;13.50;76.30;;;;;;2539505;53;21043;-76
2021/01/29 05:46:29;;;;;;;1.05;0.30;;;13.50;76.00;;;;;;2578955;52;20963;-76
2021/01/29 05:49:16;;;;;;;0.73;0.30;;;13.50;76.10;;;;;;2333020;54;20919;-75
2021/01/29 05:55:32;;;;;;;2.85;1.25;;;13.40;74.10;;;;;;2351282;53;20970;-76
2021/01/29 05:58:15;;;;;;;4.60;1.37;;;13.30;73.10;;;;;;2351379;54;21106;-75
2021/01/29 06:01:16;;;;;;;9.85;3.17;;;13.10;72.70;;;;;;2577102;52;21104;-76
2021/01/29 06:05:22;;;;;;;3.33;1.40;;;13.10;72.60;;;;;;2571980;52;21851;-75
2021/01/29 06:08:51;;;;;;;1.77;0.70;;;12.90;72.70;;;;;;2348780;54;21070;-74
2021/01/29 06:15:51;;;;;;;1.20;0.45;;;12.80;72.60;;;;;;2568909;52;21052;-74
2021/01/29 06:21:28;;;;;;;2.15;0.85;;;12.70;72.90;;;;;;2334914;53;21003;-74
2021/01/29 06:24:25;;;;;;;0.77;0.30;;;12.60;73.10;;;;;;2593198;52;20955;-74
2021/01/29 06:33:58;;;;;;;1.42;0.47;;;12.60;73.70;;;;;;2559637;52;21087;-75
2021/01/29 06:39:37;;;;;;;0.50;0.30;;;12.50;73.90;;;;;;2591401;52;20968;-75
2021/01/29 06:42:27;;;;;;;2.12;0.50;;;12.50;74.00;;;;;;2593127;52;20947;-75
2021/01/29 06:45:18;;;;;;;0.82;0.40;;;12.50;74.60;;;;;;2304879;53;2242087;-75
2021/01/29 06:49:07;;;;;;;2.00;0.60;;;12.50;74.80;;;;;;2595237;52;20970;-73
2021/01/29 06:52:41;;;;;;;1.50;0.37;;;12.60;74.70;;;;;;2563635;53;21177;-73
2021/01/29 06:55:38;;;;;;;0.62;0.30;;;12.60;74.70;;;;;;2585229;52;21023;-74
2021/01/29 07:01:21;;;;;;;1.30;0.50;;;12.60;75.00;;;;;;2572507;52;20985;-74
2021/01/29 07:10:54;;;;;;;1.55;0.30;;;12.60;75.00;;;;;;2579355;52;21022;-74
2021/01/29 07:15:19;;;;;;;1.02;0.22;;;12.70;75.00;;;;;;2574980;53;20976;-74
2021/01/29 07:20:03;;;;;;;1.65;0.68;;;12.70;74.20;;;;;;2345793;53;20936;-73
2021/01/29 07:24:12;;;;;;;1.77;0.60;;;12.70;74.80;;;;;;2340999;53;20940;-74
2021/01/29 07:27:20;;;;;;;2.87;1.48;;;12.80;75.20;;;;;;2333999;54;20988;-73
2021/01/29 07:35:07;;;;;;;2.60;1.08;;;12.80;75.10;;;;;;2340799;54;20914;-73
2021/01/29 07:40:15;;;;;;;1.45;0.65;;;12.80;75.30;;;;;;2549467;54;21472;-74
2021/01/29 07:42:54;;;;;;;2.12;0.90;;;13.00;74.70;;;;;;2347650;53;20940;-74
2021/01/29 07:48:37;;;;;;;1.42;0.60;;;13.00;75.40;;;;;;2592607;52;20953;-74
2021/01/29 07:51:56;;;;;;;1.55;0.70;;;13.00;74.60;;;;;;2554647;53;21003;-73
2021/01/29 07:54:40;;;;;;;2.45;0.90;;;13.10;75.40;;;;;;2565458;53;20959;-74
2021/01/29 07:57:50;;;;;;;2.85;1.08;;;13.10;75.20;;;;;;2548113;53;20947;-74
2021/01/29 08:00:56;;;;;;;1.60;0.65;;;13.10;75.00;;;;;;2581445;52;21011;-74
2021/01/29 08:05:18;;;;;;;1.48;0.60;;;13.10;75.40;;;;;;2584530;53;20955;-74
2021/01/29 08:07:52;;;;;;;2.65;1.02;;;13.20;74.50;;;;;;2307084;54;21294;-73
2021/01/29 08:10:30;;;;;;;3.42;1.55;;;13.20;74.60;;;;;;2607947;52;20988;-74
2021/01/29 08:13:10;;;;;;;4.85;2.10;;;13.20;74.50;;;;;;2594161;52;21006;-74
2021/01/29 08:15:52;;;;;;;3.60;1.52;;;13.20;74.50;;;;;;2594411;52;20938;-73
2021/01/29 08:18:53;;;;;;;3.97;2.12;;;13.20;74.10;;;;;;2567215;53;21038;-73
2021/01/29 08:21:58;;;;;;;5.57;2.50;;;13.20;73.50;;;;;;2320779;54;21055;-73
2021/01/29 08:24:40;;;;;;;4.05;2.08;;;13.20;73.20;;;;;;2576275;53;20969;-73
2021/01/29 08:30:32;;;;;;;5.68;2.33;;;13.20;73.40;;;;;;2330115;54;21082;-73
2021/01/29 08:39:16;;;;;;;4.22;1.62;;;13.20;72.90;;;;;;2592992;52;20993;-74
2021/01/29 08:43:37;;;;;;;3.42;1.40;;;13.30;73.30;;;;;;2599484;52;20943;-73
2021/01/29 08:49:27;;;;;;;6.03;2.08;;;13.20;72.90;;;;;;2623258;52;21011;-74
2021/01/29 08:54:04;;;;;;;2.05;0.75;;;13.20;72.80;;;;;;2370340;53;21029;-74
2021/01/29 08:56:50;;;;;;;1.70;0.60;;;13.20;72.80;;;;;;2353553;53;21419;-73
2021/01/29 08:59:18;;;;;;;2.92;0.80;;;13.20;73.40;;;;;;2617790;52;20986;-73
2021/01/29 09:02:00;;;;;;;2.17;0.73;;;13.20;73.50;;;;;;2621292;52;21006;-72
2021/01/29 09:05:11;;;;;;;3.00;0.85;;;13.20;73.00;;;;;;2324177;56;21151;-73
2021/01/29 09:07:41;;;;;;;1.90;0.80;;;13.20;72.70;;;;;;2583429;52;21009;-73
2021/01/29 09:10:24;;;;;;;2.87;0.52;;;13.20;73.80;;;;;;2592061;52;21020;-73
2021/01/29 09:12:59;;;;;;;1.90;0.55;;;13.30;73.40;;;;;;2611991;52;21016;-72
2021/01/29 09:15:44;;;;;;;2.80;0.70;;;13.30;74.00;;;;;;2610841;52;21115;-73
2021/01/29 09:18:43;;;;;;;3.25;0.80;;;13.30;73.70;;;;;;2584340;52;20976;-73
2021/01/29 09:21:21;;;;;;;2.62;0.60;;;13.40;73.70;;;;;;2340011;54;20946;-73
2021/01/29 09:24:22;;;;;;;2.30;0.68;;;13.40;74.30;;;;;;2584278;52;21841;-73
2021/01/29 09:33:41;;;;;;;1.85;0.85;;;13.50;74.00;;;;;;2590995;52;21802;-73
2021/01/29 09:36:23;;;;;;;2.45;0.57;;;13.80;73.50;;;;;;2371036;53;21426;-73
2021/01/29 09:39:39;;;;;;;2.95;0.62;;;13.80;72.70;;;;;;2589884;52;21792;-73
2021/01/29 09:42:13;;;;;;;2.05;0.57;;;13.90;72.30;;;;;;2558106;53;21497;-73
2021/01/29 09:44:58;;;;;;;2.20;0.50;;;14.00;73.20;;;;;;2337005;53;20951;-73
2021/01/29 09:47:24;;;;;;;2.40;0.60;;;13.90;71.70;;;;;;2577445;52;20919;-73
2021/01/29 09:50:05;;;;;;;3.90;0.60;;;13.90;72.60;;;;;;2589106;52;20938;-73
2021/01/29 09:58:00;;;;;;;2.08;0.60;;;13.90;72.20;;;;;;2606945;52;21017;-73
2021/01/29 10:00:28;;;;;;;2.72;0.70;;;13.90;71.20;;;;;;2594058;52;20906;-73
2021/01/29 10:03:10;;;;;;;2.72;0.70;;;13.90;72.20;;;;;;2348121;54;21885;-72
2021/01/29 10:05:53;;;;;;;2.10;0.70;;;13.80;72.00;;;;;;2608134;52;21018;-72
2021/01/29 10:08:37;;;;;;;3.08;0.60;;;13.80;71.50;;;;;;2597007;52;21027;-73
2021/01/29 10:15:02;;;;;;;4.82;0.90;;;13.80;70.80;;;;;;2610051;52;20930;-72
2021/01/29 10:17:37;;;;;;;2.65;0.60;;;13.70;69.80;;;;;;2593307;52;20951;-72
2021/01/29 10:20:06;;;;;;;1.62;0.70;;;13.70;71.50;;;;;;2604694;52;21022;-73
2021/01/29 10:22:54;;;;;;;2.85;0.70;;;13.70;71.40;;;;;;2587397;52;21150;-73
2021/01/29 10:32:32;;;;;;;1.73;0.57;;;13.70;70.90;;;;;;2356348;53;20958;-73
2021/01/29 10:41:48;;;;;;;1.77;0.60;;;13.60;70.80;;;;;;2605094;52;20923;-73
2021/01/29 10:44:23;;;;;;;4.18;1.33;;;13.60;70.90;;;;;;2346607;54;20946;-73
2021/01/29 10:48:26;;;;;;;8.27;4.20;;;13.50;71.80;;;;;;2620449;52;21005;-73
2021/01/29 10:50:55;;;;;;;5.30;1.40;;;13.50;71.30;;;;;;2371429;53;21017;-73
2021/01/29 10:53:24;;;;;;;6.55;4.40;;;13.50;72.40;;;;;;2594437;52;21085;-71
2021/01/29 10:56:01;;;;;;;4.18;1.92;;;13.50;72.30;;;;;;2593804;52;20928;-72
2021/01/29 10:58:48;;;;;;;3.80;1.40;;;13.50;71.50;;;;;;2364681;54;21892;-72
2021/01/29 11:01:35;;;;;;;8.98;2.30;;;13.50;72.30;;;;;;2356225;53;21303;-72
2021/01/29 11:05:06;;;;;;;6.45;3.20;;;13.50;71.90;;;;;;2607479;52;20910;-73
2021/01/29 11:07:37;;;;;;;9.70;3.50;;;13.50;71.50;;;;;;2609449;52;21428;-72
2021/01/29 11:10:31;;;;;;;4.85;2.05;;;13.50;72.60;;;;;;2596829;52;20909;-72
2021/01/29 11:13:12;;;;;;;4.90;1.40;;;13.50;71.90;;;;;;2536891;54;21000;-73
2021/01/29 11:17:34;;;;;;;5.80;2.33;;;13.50;73.50;;;;;;2558645;53;20916;-72
2021/01/29 11:20:02;;;;;;;6.00;1.77;;;13.60;72.90;;;;;;2314851;55;20964;-73
2021/01/29 11:25:33;;;;;;;3.42;1.25;;;13.60;72.90;;;;;;2330132;54;21616;-73
2021/01/29 11:28:14;;;;;;;2.33;0.62;;;13.70;71.50;;;;;;2348237;54;20954;-73
2021/01/29 11:32:22;;;;;;;3.00;0.70;;;13.70;72.80;;;;;;2575915;52;20909;-73
2021/01/29 11:34:53;;;;;;;3.92;1.08;;;13.70;71.30;;;;;;2607297;52;20975;-73
2021/01/29 11:37:42;;;;;;;3.87;1.23;;;13.80;72.80;;;;;;2613662;52;20941;-73
2021/01/29 11:43:47;;;;;;;2.60;0.52;;;13.80;72.50;;;;;;2374824;54;21897;-73
2021/01/29 11:46:35;;;;;;;4.05;0.80;;;13.80;72.40;;;;;;2623379;52;20974;-72
2021/01/29 11:49:36;;;;;;;3.00;0.70;;;13.80;72.30;;;;;;2370219;53;20906;-72
2021/01/29 11:52:52;;;;;;;3.08;0.70;;;13.80;71.30;;;;;;2620853;52;20942;-72
2021/01/29 11:55:24;;;;;;;5.15;1.02;;;13.80;71.20;;;;;;2329626;54;21052;-72
2021/01/29 11:58:16;;;;;;;2.85;0.68;;;13.80;72.10;;;;;;2556549;53;20914;-73
2021/01/29 12:02:06;;;;;;;4.05;0.70;;;13.80;71.50;;;;;;2575530;53;20959;-72
2021/01/29 12:04:39;;;;;;;3.37;0.80;;;13.70;71.50;;;;;;2589156;53;20933;-72
2021/01/29 12:07:11;;;;;;;3.12;0.55;;;13.70;71.80;;;;;;2547482;53;21004;-72
2021/01/29 12:09:48;;;;;;;4.03;0.90;;;13.70;71.80;;;;;;2569355;53;21433;-71
2021/01/29 12:13:05;;;;;;;5.68;0.80;;;13.70;71.60;;;;;;2575066;53;21034;-71
2021/01/29 12:15:41;;;;;;;3.50;0.90;;;13.60;70.50;;;;;;2329094;53;22304;-71
2021/01/29 12:18:09;;;;;;;1.73;0.50;;;13.60;71.20;;;;;;2554006;53;20986;-73
2021/01/29 12:20:38;;;;;;;3.53;0.77;;;13.50;71.20;;;;;;2573112;53;21860;-72
2021/01/29 12:23:44;;;;;;;5.03;1.92;;;13.50;71.30;;;;;;2571160;53;21012;-72
2021/01/29 12:26:26;;;;;;;7.62;2.78;;;13.40;70.80;;;;;;2314740;53;21001;-72
2021/01/29 12:30:30;;;;;;;5.70;1.73;;;13.30;71.20;;;;;;2345525;53;21078;-72
2021/01/29 12:33:14;;;;;;;4.20;1.60;;;13.20;70.90;;;;;;2589434;53;20990;-73
2021/01/29 12:35:53;;;;;;;5.32;1.70;;;13.20;71.40;;;;;;2343949;54;21008;-72
2021/01/29 12:38:39;;;;;;;4.10;1.23;;;13.10;71.50;;;;;;2328254;54;21005;-72
2021/01/29 12:41:27;;;;;;;3.75;1.10;;;13.10;70.90;;;;;;2538463;53;20997;-72
2021/01/29 12:49:16;;;;;;;2.47;1.00;;;13.00;71.00;;;;;;2586835;52;21745;-72
2021/01/29 12:51:54;;;;;;;3.45;0.90;;;12.90;71.00;;;;;;2319464;55;21010;-72
2021/01/29 12:57:29;;;;;;;3.50;0.95;;;12.80;72.00;;;;;;2560010;53;20991;-71
2021/01/29 13:00:20;;;;;;;3.53;0.77;;;12.80;72.20;;;;;;2578776;52;20998;-72
2021/01/29 13:03:39;;;;;;;3.00;0.73;;;12.80;72.50;;;;;;2516072;54;21015;-72
2021/01/29 13:07:16;;;;;;;3.55;0.80;;;12.80;72.50;;;;;;2575447;53;20921;-73
2021/01/29 13:10:11;;;;;;;4.78;1.35;;;12.70;72.60;;;;;;2324737;53;21053;-73
2021/01/29 13:13:03;;;;;;;3.22;1.17;;;12.70;72.80;;;;;;2572398;52;20975;-73
2021/01/29 13:16:16;;;;;;;1.85;0.75;;;12.70;73.50;;;;;;2591463;52;21820;-72
2021/01/29 13:18:57;;;;;;;3.08;0.70;;;12.60;74.00;;;;;;2579315;52;21381;-73
2021/01/29 13:21:47;;;;;;;2.25;0.70;;;12.80;74.40;;;;;;2575001;53;21000;-73
2021/01/29 13:25:35;;;;;;;2.70;0.77;;;12.80;74.90;;;;;;2558284;53;20945;-72
2021/01/29 13:28:37;;;;;;;2.47;0.90;;;12.90;73.80;;;;;;2557998;53;20962;-72
2021/01/29 13:31:20;;;;;;;3.78;0.88;;;12.90;73.90;;;;;;2329570;53;20971;-73
2021/01/29 13:33:56;;;;;;;3.25;0.80;;;13.00;74.40;;;;;;2356583;53;21554;-73
2021/01/29 13:36:33;;;;;;;5.30;0.85;;;13.00;75.00;;;;;;2589651;52;21482;-72
2021/01/29 13:39:24;;;;;;;3.20;0.82;;;13.10;76.30;;;;;;2583056;52;21821;-73
2021/01/29 13:41:53;;;;;;;4.55;0.50;;;13.30;76.10;;;;;;2601174;52;21033;-73
2021/01/29 13:46:23;;;;;;;3.37;0.68;;;13.40;76.70;;;;;;2620791;52;20946;-73
2021/01/29 13:49:06;;;;;;;1.52;0.40;;;13.70;75.40;;;;;;2623234;52;21797;-74
2021/01/29 13:51:34;;;;;;;1.95;0.70;;;13.80;76.70;;;;;;2588773;52;20922;-72
2021/01/29 13:54:01;;;;;;;1.42;0.40;;;13.90;76.30;;;;;;2352724;53;21448;-74
2021/01/29 13:56:41;;;;;;;1.50;0.60;;;14.10;75.00;;;;;;2330716;53;21003;-73
2021/01/29 13:59:32;;;;;;;2.37;0.62;;;14.10;73.80;;;;;;2362660;53;21553;-73
2021/01/29 14:02:31;;;;;;;1.92;0.50;;;14.20;72.80;;;;;;2585686;52;20971;-73
2021/01/29 14:06:49;;;;;;;1.67;0.57;;;14.20;71.80;;;;;;2340880;53;21801;-73
2021/01/29 14:09:16;;;;;;;2.28;0.60;;;14.20;70.30;;;;;;2588538;53;20989;-74
2021/01/29 14:12:01;;;;;;;2.92;0.70;;;14.10;71.70;;;;;;2581812;53;20983;-73
2021/01/29 14:16:10;;;;;;;3.03;0.70;;;14.10;70.20;;;;;;2557191;53;20971;-72
2021/01/29 14:19:36;;;;;;;1.17;0.40;;;14.00;69.60;;;;;;2587456;53;20975;-74
2021/01/29 14:22:41;;;;;;;1.30;0.50;;;14.00;69.60;;;;;;2598244;52;20964;-73
2021/01/29 14:26:15;;;;;;;1.77;0.60;;;13.90;68.90;;;;;;2351480;54;20922;-73
2021/01/29 14:33:13;;;;;;;2.50;0.70;;;13.80;69.20;;;;;;2593414;52;21003;-73
2021/01/29 14:36:02;;;;;;;3.00;0.75;;;13.70;69.10;;;;;;2613778;52;20948;-73
2021/01/29 14:41:00;;;;;;;2.58;0.75;;;13.60;69.80;;;;;;2610026;52;20981;-73
2021/01/29 14:47:02;;;;;;;4.43;0.60;;;13.60;69.80;;;;;;2589312;53;21810;-73
2021/01/29 14:49:56;;;;;;;1.60;0.47;;;13.50;70.00;;;;;;2582560;52;20907;-72
2021/01/29 14:52:25;;;;;;;5.20;0.95;;;13.50;70.00;;;;;;2607595;52;20980;-73
2021/01/29 14:54:57;;;;;;;3.75;0.75;;;13.50;71.00;;;;;;2600073;52;21521;-71
2021/01/29 14:57:29;;;;;;;2.95;0.57;;;13.50;71.40;;;;;;2595495;52;21017;-71
2021/01/29 15:00:00;;;;;;;2.55;0.62;;;13.40;71.50;;;;;;2600010;52;21043;-73
2021/01/29 15:02:31;;;;;;;2.55;0.60;;;13.40;71.10;;;;;;2613063;52;20963;-72
2021/01/29 15:04:59;;;;;;;3.20;0.80;;;13.60;71.20;;;;;;2369843;54;20989;-72
2021/01/29 15:07:40;;;;;;;2.92;0.77;;;13.40;70.90;;;;;;2344759;54;20947;-73
2021/01/29 15:10:20;;;;;;;5.10;0.98;;;13.40;70.20;;;;;;2587271;53;21020;-73
2021/01/29 15:12:47;;;;;;;3.58;0.60;;;13.40;70.80;;;;;;2339364;54;20992;-73
2021/01/29 15:15:57;;;;;;;3.70;0.73;;;13.40;71.10;;;;;;2588999;53;21031;-71
2021/01/29 15:18:38;;;;;;;2.33;0.60;;;13.40;69.70;;;;;;2585654;53;21004;-73
2021/01/29 15:21:34;;;;;;;3.72;0.90;;;13.50;70.30;;;;;;2341682;53;20960;-72
2021/01/29 15:24:03;;;;;;;3.67;0.70;;;13.50;69.60;;;;;;2587349;52;20959;-73
2021/01/29 15:26:29;;;;;;;6.40;1.00;;;13.40;70.00;;;;;;2571295;53;21561;-73
2021/01/29 15:29:09;;;;;;;4.72;0.77;;;13.40;69.80;;;;;;2589666;52;20932;-73
2021/01/29 15:31:42;;;;;;;3.45;0.80;;;13.40;69.20;;;;;;2342368;54;20972;-72
2021/01/29 15:34:10;;;;;;;5.50;1.08;;;13.40;69.40;;;;;;2536936;53;21021;-72
2021/01/29 15:36:49;;;;;;;3.50;0.73;;;13.40;69.70;;;;;;2585349;52;21746;-73
2021/01/29 15:39:36;;;;;;;6.62;0.82;;;13.40;69.80;;;;;;2573771;52;21065;-71
2021/01/29 15:42:04;;;;;;;2.75;0.60;;;13.40;69.00;;;;;;2597176;52;21268;-72
2021/01/29 15:44:52;;;;;;;4.97;0.88;;;13.40;69.70;;;;;;2595919;52;20968;-72
2021/01/29 15:47:56;;;;;;;4.62;0.98;;;13.40;68.50;;;;;;2371330;54;20964;-72
2021/01/29 15:50:57;;;;;;;4.20;1.10;;;13.40;68.20;;;;;;2597995;52;21831;-72
2021/01/29 15:53:57;;;;;;;5.20;1.00;;;13.30;68.40;;;;;;2600419;52;21098;-72
2021/01/29 15:56:42;;;;;;;3.42;0.98;;;13.30;68.50;;;;;;2610095;52;21027;-73
2021/01/29 15:59:21;;;;;;;7.12;1.08;;;13.30;68.20;;;;;;2349695;54;21050;-72
2021/01/29 16:01:50;;;;;;;3.67;0.75;;;13.20;68.40;;;;;;2370740;53;21033;-72
2021/01/29 16:04:51;;;;;;;3.85;0.80;;;13.20;69.00;;;;;;2588488;52;20901;-72
2021/01/29 16:07:25;;;;;;;2.17;0.75;;;13.20;67.80;;;;;;2368922;54;20938;-72
2021/01/29 16:10:24;;;;;;;5.43;0.82;;;13.20;68.50;;;;;;2563015;53;21038;-72
2021/01/29 16:13:10;;;;;;;2.17;0.55;;;13.10;67.50;;;;;;2588370;52;21433;-71
2021/01/29 16:15:37;;;;;;;3.60;0.73;;;13.10;68.40;;;;;;2357985;54;21015;-72
2021/01/29 16:18:13;;;;;;;3.75;0.60;;;13.00;68.50;;;;;;2602060;52;21001;-72
2021/01/29 16:20:42;;;;;;;1.98;0.60;;;13.00;68.30;;;;;;2348794;54;21011;-72
2021/01/29 16:23:20;;;;;;;3.58;0.82;;;12.90;68.50;;;;;;2613741;52;20955;-72
2021/01/29 16:27:40;;;;;;;2.78;0.90;;;12.80;68.30;;;;;;2594313;52;21046;-72
2021/01/29 16:30:08;;;;;;;2.30;0.80;;;12.70;67.70;;;;;;2332533;54;21761;-72
2021/01/29 16:32:35;;;;;;;2.42;0.70;;;12.60;68.20;;;;;;2344047;54;21812;-72
2021/01/29 16:35:13;;;;;;;3.53;0.85;;;12.50;68.40;;;;;;2599126;52;21543;-72
2021/01/29 16:37:41;;;;;;;2.05;0.70;;;12.40;68.50;;;;;;2584338;53;20975;-72
2021/01/29 16:40:17;;;;;;;4.25;0.82;;;12.30;68.90;;;;;;2587077;53;20965;-72
2021/01/29 16:42:46;;;;;;;6.10;1.02;;;12.20;69.00;;;;;;2341772;54;20915;-72
2021/01/29 16:45:40;;;;;;;5.28;0.90;;;12.10;69.30;;;;;;2580116;53;20975;-72
2021/01/29 16:48:28;;;;;;;;;;;12.00;68.70;;;;;;2591011;53;21461;-72
2021/01/29 16:51:17;;;;;;;3.28;0.70;;;12.00;68.70;;;;;;2584660;53;20075;-72
2021/01/29 16:53:46;;;;;;;2.87;0.80;;;11.90;68.80;;;;;;2338707;54;21428;-72
2021/01/29 16:56:15;;;;;;;3.25;0.65;;;11.80;69.40;;;;;;2552653;53;20924;-72
2021/01/29 16:58:44;;;;;;;4.00;0.77;;;11.70;69.70;;;;;;2562957;52;20965;-72
2021/01/29 17:01:26;;;;;;;2.35;0.70;;;11.60;69.90;;;;;;2556247;53;21749;-72
2021/01/29 17:03:59;;;;;;;;;;;11.60;69.70;;;;;;2598142;52;21056;-72
2021/01/29 17:07:11;;;;;;;2.35;0.57;;;11.60;69.50;;;;;;2617491;52;20066;-71